createdAt,value
2022-08-01T00:00:50.737Z,99.90
2022-08-01T00:03:52.613Z,99.90
2022-08-01T00:06:54.624Z,99.90
2022-08-01T00:09:56.411Z,99.90
2022-08-01T00:12:58.159Z,99.90
2022-08-01T00:16:00.076Z,99.90
2022-08-01T00:19:02.059Z,99.90
2022-08-01T00:22:04.165Z,99.90
2022-08-01T00:25:07.381Z,99.90
2022-08-01T00:28:09.782Z,99.90
2022-08-01T00:31:11.619Z,99.90
2022-08-01T00:34:13.789Z,99.90
2022-08-01T00:37:16.156Z,99.90
2022-08-01T00:40:18.107Z,99.90
2022-08-01T00:43:20.018Z,99.90
2022-08-01T00:46:23.387Z,99.90
2022-08-01T00:49:25.159Z,99.90
2022-08-01T00:52:27.099Z,99.90
2022-08-01T00:55:30.376Z,99.90
2022-08-01T00:58:33.330Z,99.90
2022-08-01T01:01:39.162Z,99.90
2022-08-01T01:04:42.054Z,99.90
2022-08-01T01:08:07.948Z,99.90
2022-08-01T01:11:26.379Z,99.90
2022-08-01T01:14:47.692Z,99.90
2022-08-01T01:18:01.111Z,99.90
2022-08-01T01:21:15.008Z,99.90
2022-08-01T01:24:41.756Z,99.90
2022-08-01T01:28:01.816Z,99.90
2022-08-01T01:31:08.187Z,99.90
2022-08-01T01:34:16.775Z,99.90
2022-08-01T01:37:24.126Z,99.90
2022-08-01T01:40:27.134Z,99.90
2022-08-01T01:43:33.478Z,99.90
2022-08-01T01:46:37.684Z,99.90
2022-08-01T01:49:42.603Z,99.90
2022-08-01T01:52:46.328Z,99.90
2022-08-01T01:55:53.033Z,99.90
2022-08-01T01:58:58.769Z,99.90
2022-08-01T02:02:05.823Z,99.90
2022-08-01T02:05:11.047Z,99.90
2022-08-01T02:08:16.634Z,99.90
2022-08-01T02:11:19.339Z,99.90
2022-08-01T02:14:22.424Z,99.90
2022-08-01T02:17:25.663Z,99.90
2022-08-01T02:20:30.321Z,99.90
2022-08-01T02:23:38.191Z,99.90
2022-08-01T02:26:47.560Z,99.90
2022-08-01T02:30:01.315Z,99.90
2022-08-01T02:33:15.585Z,99.90
2022-08-01T02:36:29.705Z,99.90
2022-08-01T02:39:37.829Z,99.90
2022-08-01T02:42:43.882Z,99.90
2022-08-01T02:45:52.661Z,99.90
2022-08-01T02:48:56.531Z,99.90
2022-08-01T02:52:00.422Z,99.90
2022-08-01T02:55:03.027Z,99.90
2022-08-01T02:58:07.689Z,99.90
2022-08-01T03:01:11.478Z,99.90
2022-08-01T03:04:14.376Z,99.90
2022-08-01T03:07:17.611Z,99.90
2022-08-01T03:10:22.296Z,99.90
2022-08-01T03:13:26.450Z,99.90
2022-08-01T03:16:29.313Z,99.90
2022-08-01T03:19:32.563Z,99.90
2022-08-01T03:22:35.927Z,99.90
2022-08-01T03:25:39.934Z,99.90
2022-08-01T03:28:42.778Z,99.90
2022-08-01T03:31:46.183Z,99.90
2022-08-01T03:34:48.647Z,99.90
2022-08-01T03:38:15.245Z,99.90
2022-08-01T03:41:22.208Z,99.90
2022-08-01T03:44:28.476Z,99.90
2022-08-01T03:47:34.360Z,99.90
2022-08-01T03:50:45.015Z,99.90
2022-08-01T03:53:48.369Z,99.90
2022-08-01T03:56:50.865Z,99.90
2022-08-01T03:59:53.501Z,99.90
2022-08-01T04:02:55.561Z,99.90
2022-08-01T04:05:57.378Z,99.90
2022-08-01T04:08:59.610Z,99.90
2022-08-01T04:12:01.803Z,99.90
2022-08-01T04:15:15.020Z,99.90
2022-08-01T04:18:16.978Z,99.90
2022-08-01T04:21:25.435Z,99.90
2022-08-01T04:24:31.172Z,99.90
2022-08-01T04:27:50.293Z,99.90
2022-08-01T04:30:59.868Z,99.90
2022-08-01T04:34:06.697Z,99.90
2022-08-01T04:37:11.371Z,99.90
2022-08-01T04:40:17.119Z,99.90
2022-08-01T04:43:20.025Z,99.90
2022-08-01T04:46:23.326Z,99.90
2022-08-01T04:49:25.496Z,99.90
2022-08-01T04:52:34.480Z,99.90
2022-08-01T04:55:36.682Z,99.90
2022-08-01T04:58:38.650Z,99.90
2022-08-01T05:01:40.622Z,99.90
2022-08-01T05:04:44.732Z,99.90
2022-08-01T05:07:46.649Z,99.90
2022-08-01T05:10:48.672Z,99.90
2022-08-01T05:13:50.426Z,99.90
2022-08-01T05:16:52.848Z,99.90
2022-08-01T05:19:54.954Z,99.90
2022-08-01T05:22:56.858Z,99.90
2022-08-01T05:25:59.596Z,99.90
2022-08-01T05:29:01.676Z,99.90
2022-08-01T05:32:04.284Z,99.90
2022-08-01T05:35:07.746Z,99.90
2022-08-01T05:38:09.479Z,99.90
2022-08-01T05:41:16.144Z,99.90
2022-08-01T05:44:18.002Z,99.90
2022-08-01T05:47:19.857Z,99.90
2022-08-01T05:50:21.658Z,99.90
2022-08-01T05:53:23.627Z,99.90
2022-08-01T05:56:29.335Z,99.90
2022-08-01T05:59:33.771Z,99.90
2022-08-01T06:02:35.661Z,99.90
2022-08-01T06:05:37.722Z,99.90
2022-08-01T06:08:39.529Z,99.90
2022-08-01T06:11:41.666Z,99.90
2022-08-01T06:14:43.666Z,99.90
2022-08-01T06:17:45.675Z,99.90
2022-08-01T06:20:47.910Z,99.90
2022-08-01T06:23:49.714Z,99.90
2022-08-01T06:26:51.754Z,99.90
2022-08-01T06:29:57.495Z,99.90
2022-08-01T06:33:01.001Z,99.90
2022-08-01T06:36:03.595Z,99.90
2022-08-01T06:39:05.430Z,99.90
2022-08-01T06:42:07.687Z,99.90
2022-08-01T06:45:11.601Z,99.90
2022-08-01T06:48:13.408Z,99.90
2022-08-01T06:51:17.835Z,99.90
2022-08-01T06:54:19.714Z,99.90
2022-08-01T06:57:21.482Z,99.90
2022-08-01T07:00:25.457Z,99.90
2022-08-01T07:03:53.430Z,99.90
2022-08-01T07:06:50.161Z,99.90
2022-08-01T07:09:51.915Z,99.90
2022-08-01T07:12:55.330Z,99.90
2022-08-01T07:15:57.451Z,99.90
2022-08-01T07:18:59.221Z,99.90
2022-08-01T07:22:01.057Z,99.90
2022-08-01T07:25:07.338Z,99.90
2022-08-01T07:28:09.128Z,99.90
2022-08-01T07:31:11.261Z,99.90
2022-08-01T07:34:13.477Z,99.90
2022-08-01T07:37:15.655Z,99.90
2022-08-01T07:40:20.586Z,99.90
2022-08-01T07:43:22.349Z,99.90
2022-08-01T07:46:24.301Z,99.90
2022-08-01T07:49:26.341Z,99.90
2022-08-01T07:52:28.295Z,99.90
2022-08-01T07:55:30.251Z,99.90
2022-08-01T07:58:32.241Z,99.90
2022-08-01T08:01:34.225Z,99.90
2022-08-01T08:04:36.086Z,99.90
2022-08-01T08:07:38.390Z,99.90
2022-08-01T08:10:40.114Z,99.90
2022-08-01T08:13:43.185Z,99.90
2022-08-01T08:16:45.875Z,99.90
2022-08-01T08:19:47.962Z,99.90
2022-08-01T08:22:49.772Z,99.90
2022-08-01T08:25:51.793Z,99.90
2022-08-01T08:28:53.503Z,99.90
2022-08-01T08:32:03.462Z,99.90
2022-08-01T08:35:07.657Z,99.90
2022-08-01T08:38:09.750Z,99.90
2022-08-01T08:41:16.807Z,99.90
2022-08-01T08:44:21.226Z,99.90
2022-08-01T08:47:24.887Z,99.90
2022-08-01T08:50:27.371Z,99.90
2022-08-01T08:53:34.790Z,99.90
2022-08-01T08:56:38.385Z,99.90
2022-08-01T08:59:40.360Z,99.90
2022-08-01T09:02:44.351Z,99.90
2022-08-01T09:05:46.447Z,99.90
2022-08-01T09:08:48.783Z,99.90
2022-08-01T09:11:54.891Z,99.90
2022-08-01T09:15:02.370Z,99.90
2022-08-01T09:18:05.221Z,99.90
2022-08-01T09:21:07.055Z,99.90
2022-08-01T09:24:16.707Z,99.90
2022-08-01T09:27:25.012Z,99.90
2022-08-01T09:30:27.053Z,99.90
2022-08-01T09:33:51.516Z,99.90
2022-08-01T09:37:02.690Z,99.90
2022-08-01T09:40:05.136Z,99.90
2022-08-01T09:43:14.813Z,99.90
2022-08-01T09:46:17.939Z,99.90
2022-08-01T09:49:50.641Z,99.90
2022-08-01T09:52:57.939Z,99.90
2022-08-01T09:56:13.263Z,99.90
2022-08-01T09:59:16.825Z,99.90
2022-08-01T10:02:38.209Z,99.90
2022-08-01T10:05:43.872Z,99.90
2022-08-01T10:08:49.521Z,99.90
2022-08-01T10:11:51.663Z,99.90
2022-08-01T10:14:56.316Z,99.90
2022-08-01T10:18:02.008Z,99.90
2022-08-01T10:21:10.793Z,99.90
2022-08-01T10:24:13.568Z,99.90
2022-08-01T10:27:24.273Z,99.90
2022-08-01T10:30:39.318Z,99.90
2022-08-01T10:33:52.528Z,99.90
2022-08-01T10:36:55.485Z,99.90
2022-08-01T10:40:27.292Z,99.90
2022-08-01T10:43:21.914Z,99.90
2022-08-01T10:46:24.664Z,99.90
2022-08-01T10:49:31.595Z,99.90
2022-08-01T10:52:39.682Z,99.90
2022-08-01T10:56:04.159Z,99.90
2022-08-01T10:59:11.591Z,99.90
2022-08-01T11:02:32.262Z,99.90
2022-08-01T11:05:37.751Z,99.90
2022-08-01T11:08:40.199Z,99.90
2022-08-01T11:12:06.342Z,99.90
2022-08-01T11:15:11.226Z,99.90
2022-08-01T11:18:29.819Z,99.90
2022-08-01T11:21:59.109Z,99.90
2022-08-01T11:25:03.701Z,99.90
2022-08-01T11:28:28.634Z,99.90
2022-08-01T11:31:37.681Z,99.90
2022-08-01T11:34:56.842Z,99.90
2022-08-01T11:38:29.306Z,99.90
2022-08-01T11:41:37.242Z,99.90
2022-08-01T11:44:51.748Z,99.90
2022-08-01T11:47:54.060Z,99.90
2022-08-01T11:50:57.249Z,99.90
2022-08-01T11:53:59.958Z,99.90
2022-08-01T11:57:06.098Z,99.90
2022-08-01T12:00:17.875Z,99.90
2022-08-01T12:03:34.188Z,99.90
2022-08-01T12:06:36.412Z,99.90
2022-08-01T12:09:38.162Z,99.90
2022-08-01T12:12:56.793Z,99.90
2022-08-01T12:16:08.510Z,99.90
2022-08-01T12:19:11.867Z,99.90
2022-08-01T12:22:14.957Z,99.90
2022-08-01T12:25:18.448Z,99.90
2022-08-01T12:28:20.362Z,99.90
2022-08-01T12:31:32.891Z,99.90
2022-08-01T12:34:35.502Z,99.90
2022-08-01T12:37:42.121Z,99.90
2022-08-01T12:40:47.452Z,99.90
2022-08-01T12:43:53.462Z,99.90
2022-08-01T12:46:55.986Z,99.90
2022-08-01T12:49:57.737Z,99.90
2022-08-01T12:53:00.069Z,99.90
2022-08-01T12:56:01.872Z,99.90
2022-08-01T12:59:21.303Z,99.90
2022-08-01T13:02:33.215Z,99.90
2022-08-01T13:05:53.156Z,99.90
2022-08-01T13:08:55.031Z,99.00
2022-08-01T13:12:04.103Z,99.40
2022-08-01T13:15:28.696Z,99.00
2022-08-01T13:18:33.493Z,98.80
2022-08-01T13:21:52.463Z,98.20
2022-08-01T13:25:19.793Z,97.90
2022-08-01T13:28:28.043Z,97.60
2022-08-01T13:31:37.576Z,97.90
2022-08-01T13:34:39.935Z,97.80
2022-08-01T13:37:43.247Z,97.20
2022-08-01T13:40:45.169Z,97.40
2022-08-01T13:43:58.617Z,97.30
2022-08-01T13:47:01.383Z,97.30
2022-08-01T13:50:04.049Z,97.00
2022-08-01T13:53:06.199Z,96.30
2022-08-01T13:56:08.218Z,96.70
2022-08-01T13:59:10.453Z,97.00
2022-08-01T14:02:12.279Z,97.10
2022-08-01T14:05:14.117Z,97.10
2022-08-01T14:08:16.557Z,96.90
2022-08-01T14:11:18.851Z,97.00
2022-08-01T14:14:23.120Z,96.80
2022-08-01T14:17:24.882Z,96.60
2022-08-01T14:20:27.109Z,96.60
2022-08-01T14:23:29.126Z,96.40
2022-08-01T14:26:31.218Z,96.30
2022-08-01T14:30:02.350Z,96.20
2022-08-01T14:32:54.660Z,96.50
2022-08-01T14:36:05.203Z,96.40
2022-08-01T14:39:08.410Z,96.50
2022-08-01T14:42:16.685Z,96.20
2022-08-01T14:45:18.998Z,95.50
2022-08-01T14:48:20.736Z,95.50
2022-08-01T14:51:22.640Z,94.90
2022-08-01T14:54:29.201Z,95.40
2022-08-01T14:57:31.839Z,95.30
2022-08-01T15:00:33.894Z,94.70
2022-08-01T15:03:35.787Z,95.10
2022-08-01T15:06:37.796Z,95.80
2022-08-01T15:09:40.295Z,96.00
2022-08-01T15:12:50.387Z,95.90
2022-08-01T15:15:52.724Z,95.40
2022-08-01T15:18:54.562Z,95.00
2022-08-01T15:21:56.275Z,95.10
2022-08-01T15:25:00.325Z,95.00
2022-08-01T15:28:02.167Z,94.70
2022-08-01T15:31:03.872Z,94.90
2022-08-01T15:37:45.747Z,97.20
2022-08-01T15:40:47.462Z,96.30
2022-08-01T15:43:55.717Z,96.40
2022-08-01T15:46:58.266Z,97.00
2022-08-01T15:50:02.363Z,97.10
2022-08-01T15:53:04.450Z,97.20
2022-08-01T15:56:06.293Z,97.40
2022-08-01T15:59:08.395Z,97.40
2022-08-01T16:02:10.816Z,97.60
2022-08-01T16:05:13.075Z,97.70
2022-08-01T16:08:19.007Z,97.10
2022-08-01T16:11:21.212Z,97.20
2022-08-01T16:14:23.043Z,97.10
2022-08-01T16:17:25.042Z,96.80
2022-08-01T16:20:26.925Z,96.50
2022-08-01T16:23:29.129Z,96.20
2022-08-01T16:26:31.160Z,95.80
2022-08-01T16:29:34.113Z,95.80
2022-08-01T16:32:54.302Z,96.00
2022-08-01T16:35:58.890Z,95.60
2022-08-01T16:39:01.427Z,95.60
2022-08-01T16:42:03.286Z,95.40
2022-08-01T16:45:08.640Z,94.60
2022-08-01T16:48:16.081Z,94.70
2022-08-01T16:51:17.756Z,95.10
2022-08-01T16:54:25.185Z,95.00
2022-08-01T16:57:28.581Z,95.10
2022-08-01T17:00:30.455Z,95.00
2022-08-01T17:03:51.435Z,94.80
2022-08-01T17:06:53.884Z,95.00
2022-08-01T17:09:55.831Z,95.30
2022-08-01T17:12:57.681Z,95.30
2022-08-01T17:15:59.594Z,95.80
2022-08-01T17:19:02.077Z,95.80
2022-08-01T17:22:04.316Z,95.60
2022-08-01T17:25:09.050Z,95.60
2022-08-01T17:28:18.220Z,95.70
2022-08-01T17:31:20.200Z,95.80
2022-08-01T17:34:22.293Z,95.70
2022-08-01T17:37:25.602Z,95.80
2022-08-01T17:40:42.837Z,96.00
2022-08-01T17:43:44.607Z,96.10
2022-08-01T17:46:46.804Z,95.90
2022-08-01T17:49:56.435Z,96.20
2022-08-01T17:52:58.615Z,96.30
2022-08-01T17:56:02.317Z,96.80
2022-08-01T17:59:04.233Z,96.70
2022-08-01T18:02:06.211Z,96.60
2022-08-01T18:05:10.655Z,96.60
2022-08-01T18:08:13.168Z,96.70
2022-08-01T18:11:17.423Z,96.70
2022-08-01T18:14:19.231Z,96.80
2022-08-01T18:17:21.131Z,96.90
2022-08-01T18:20:22.991Z,96.90
2022-08-01T18:23:24.740Z,97.10
2022-08-01T18:26:26.808Z,97.20
2022-08-01T18:29:47.347Z,96.90
2022-08-01T18:32:50.089Z,96.90
2022-08-01T18:35:53.935Z,97.00
2022-08-01T18:38:57.384Z,97.10
2022-08-01T18:42:01.192Z,96.90
2022-08-01T18:45:03.530Z,97.00
2022-08-01T18:48:05.880Z,96.90
2022-08-01T18:51:08.490Z,96.80
2022-08-01T18:54:14.773Z,96.80
2022-08-01T18:57:16.514Z,96.70
2022-08-01T19:00:22.801Z,96.80
2022-08-01T19:03:24.743Z,96.90
2022-08-01T19:06:27.258Z,97.00
2022-08-01T19:09:29.071Z,97.00
2022-08-01T19:12:30.962Z,97.00
2022-08-01T19:15:32.830Z,97.00
2022-08-01T19:18:35.032Z,97.20
2022-08-01T19:21:42.800Z,97.30
2022-08-01T19:24:46.756Z,97.50
2022-08-01T19:27:50.480Z,97.50
2022-08-01T19:30:54.196Z,97.50
2022-08-01T19:33:57.850Z,97.60
2022-08-01T19:37:00.122Z,97.60
2022-08-01T19:40:02.040Z,97.80
2022-08-01T19:43:06.161Z,97.50
2022-08-01T19:46:17.232Z,97.60
2022-08-01T19:49:21.741Z,97.50
2022-08-01T19:52:26.627Z,97.60
2022-08-01T19:55:30.870Z,97.70
2022-08-01T19:58:52.681Z,97.90
2022-08-01T20:02:02.582Z,98.00
2022-08-01T20:05:04.782Z,98.20
2022-08-01T20:08:07.592Z,98.30
2022-08-01T20:11:13.732Z,98.40
2022-08-01T20:14:20.907Z,98.50
2022-08-01T20:17:23.839Z,98.50
2022-08-01T20:20:26.498Z,98.60
2022-08-01T20:23:31.142Z,98.70
2022-08-01T20:26:33.731Z,98.80
2022-08-01T20:29:37.033Z,98.90
2022-08-01T20:32:40.397Z,99.10
2022-08-01T20:35:53.061Z,99.10
2022-08-01T20:38:57.502Z,99.30
2022-08-01T20:42:01.283Z,99.50
2022-08-01T20:45:04.838Z,99.70
2022-08-01T20:48:08.848Z,99.90
2022-08-01T20:51:16.828Z,99.90
2022-08-01T20:54:19.363Z,99.90
2022-08-01T20:57:27.521Z,99.90
2022-08-01T21:00:30.747Z,99.90
2022-08-01T21:03:50.879Z,99.90
2022-08-01T21:07:03.305Z,99.90
2022-08-01T21:10:11.542Z,99.90
2022-08-01T21:13:20.568Z,99.90
2022-08-01T21:16:29.779Z,99.90
2022-08-01T21:19:33.458Z,99.90
2022-08-01T21:23:01.395Z,99.90
2022-08-01T21:26:04.538Z,99.90
2022-08-01T21:29:07.670Z,99.90
2022-08-01T21:32:15.365Z,99.90
2022-08-01T21:35:20.013Z,99.90
2022-08-01T21:38:22.930Z,99.90
2022-08-01T21:41:56.777Z,99.90
2022-08-01T21:44:52.874Z,99.90
2022-08-01T21:47:56.640Z,99.90
2022-08-01T21:51:01.307Z,99.90
2022-08-01T21:54:41.679Z,99.90
2022-08-01T21:58:22.604Z,99.90
2022-08-01T22:01:50.004Z,99.90
2022-08-01T22:05:05.620Z,99.90
2022-08-01T22:08:09.759Z,99.90
2022-08-01T22:11:14.561Z,99.90
2022-08-01T22:14:18.442Z,99.90
2022-08-01T22:17:22.930Z,99.90
2022-08-01T22:20:27.580Z,99.90
2022-08-01T22:23:29.831Z,99.90
2022-08-01T22:26:36.071Z,99.90
2022-08-01T22:29:38.063Z,99.90
2022-08-01T22:32:42.140Z,99.90
2022-08-01T22:35:50.510Z,99.90
2022-08-01T22:38:52.573Z,99.90
2022-08-01T22:42:01.299Z,99.90
2022-08-01T22:45:24.891Z,99.90
2022-08-01T22:48:36.831Z,99.90
2022-08-01T22:51:55.375Z,99.90
2022-08-01T22:55:07.912Z,99.90
2022-08-01T22:58:13.704Z,99.90
2022-08-01T23:01:22.563Z,99.90
2022-08-01T23:04:37.361Z,99.90
2022-08-01T23:07:44.019Z,99.90
2022-08-01T23:10:47.045Z,99.90
2022-08-01T23:13:51.576Z,99.90
2022-08-01T23:16:54.707Z,99.90
2022-08-01T23:20:03.373Z,99.90
2022-08-01T23:23:06.333Z,99.90
2022-08-01T23:26:10.674Z,99.90
2022-08-01T23:29:12.610Z,99.90
2022-08-01T23:32:15.796Z,99.90
2022-08-01T23:35:18.369Z,99.90
2022-08-01T23:38:20.703Z,99.90
2022-08-01T23:41:22.679Z,99.90
2022-08-01T23:44:24.596Z,99.90
2022-08-01T23:47:26.919Z,99.90
2022-08-01T23:50:28.900Z,99.90
2022-08-01T23:53:32.225Z,99.90
2022-08-01T23:56:33.998Z,99.90
2022-08-01T23:59:52.877Z,99.90
